sensor_id;sensor_type;location;lat;lon;timestamp;P1;durP1;ratioP1;P2;durP2;ratioP2
31746;SDS011;18319;48.974;8.462;2024-03-02T00:00:48;2.63;;;1.47;;
31746;SDS011;18319;48.974;8.462;2024-03-02T00:03:15;3.27;;;1.43;;
31746;SDS011;18319;48.974;8.462;2024-03-02T00:05:44;1.52;;;1.42;;
31746;SDS011;18319;48.974;8.462;2024-03-02T00:08:14;2.17;;;1.40;;
31746;SDS011;18319;48.974;8.462;2024-03-02T00:10:48;0.80;;;0.80;;
31746;SDS011;18319;48.974;8.462;2024-03-02T00:13:15;1.23;;;1.00;;
31746;SDS011;18319;48.974;8.462;2024-03-02T00:15:46;1.23;;;0.90;;
31746;SDS011;18319;48.974;8.462;2024-03-02T00:18:16;1.17;;;1.03;;
31746;SDS011;18319;48.974;8.462;2024-03-02T00:20:47;1.50;;;1.27;;
31746;SDS011;18319;48.974;8.462;2024-03-02T00:23:14;0.70;;;0.70;;
31746;SDS011;18319;48.974;8.462;2024-03-02T00:25:42;1.30;;;1.30;;
31746;SDS011;18319;48.974;8.462;2024-03-02T00:28:13;1.10;;;1.03;;
31746;SDS011;18319;48.974;8.462;2024-03-02T00:30:54;2.33;;;1.07;;
31746;SDS011;18319;48.974;8.462;2024-03-02T00:33:22;1.30;;;1.20;;
31746;SDS011;18319;48.974;8.462;2024-03-02T00:35:54;1.20;;;1.10;;
31746;SDS011;18319;48.974;8.462;2024-03-02T00:38:21;0.80;;;0.80;;
31746;SDS011;18319;48.974;8.462;2024-03-02T00:40:49;0.90;;;0.90;;
31746;SDS011;18319;48.974;8.462;2024-03-02T00:46:09;3.80;;;1.20;;
31746;SDS011;18319;48.974;8.462;2024-03-02T00:48:37;1.70;;;1.00;;
31746;SDS011;18319;48.974;8.462;2024-03-02T00:51:06;1.47;;;1.10;;
31746;SDS011;18319;48.974;8.462;2024-03-02T00:53:32;1.20;;;1.10;;
31746;SDS011;18319;48.974;8.462;2024-03-02T00:55:59;1.40;;;1.20;;
31746;SDS011;18319;48.974;8.462;2024-03-02T00:58:26;1.53;;;1.20;;
31746;SDS011;18319;48.974;8.462;2024-03-02T01:00:53;1.37;;;1.27;;
31746;SDS011;18319;48.974;8.462;2024-03-02T01:03:20;0.97;;;0.97;;
31746;SDS011;18319;48.974;8.462;2024-03-02T01:05:47;1.37;;;1.27;;
31746;SDS011;18319;48.974;8.462;2024-03-02T01:08:15;0.93;;;0.80;;
31746;SDS011;18319;48.974;8.462;2024-03-02T01:10:42;3.13;;;1.10;;
31746;SDS011;18319;48.974;8.462;2024-03-02T01:13:09;0.83;;;0.83;;
31746;SDS011;18319;48.974;8.462;2024-03-02T01:15:35;1.30;;;1.00;;
31746;SDS011;18319;48.974;8.462;2024-03-02T01:18:02;1.40;;;0.87;;
31746;SDS011;18319;48.974;8.462;2024-03-02T01:20:30;1.07;;;1.07;;
31746;SDS011;18319;48.974;8.462;2024-03-02T01:22:57;1.10;;;1.00;;
31746;SDS011;18319;48.974;8.462;2024-03-02T01:25:25;1.10;;;1.00;;
31746;SDS011;18319;48.974;8.462;2024-03-02T01:27:52;1.67;;;1.23;;
31746;SDS011;18319;48.974;8.462;2024-03-02T01:30:18;0.70;;;0.70;;
31746;SDS011;18319;48.974;8.462;2024-03-02T01:32:46;1.10;;;1.00;;
31746;SDS011;18319;48.974;8.462;2024-03-02T01:35:13;0.70;;;0.70;;
31746;SDS011;18319;48.974;8.462;2024-03-02T01:37:40;0.90;;;0.90;;
31746;SDS011;18319;48.974;8.462;2024-03-02T01:40:07;0.80;;;0.80;;
31746;SDS011;18319;48.974;8.462;2024-03-02T01:42:37;1.00;;;0.70;;
31746;SDS011;18319;48.974;8.462;2024-03-02T01:45:05;1.53;;;0.77;;
31746;SDS011;18319;48.974;8.462;2024-03-02T01:47:32;0.87;;;0.80;;
31746;SDS011;18319;48.974;8.462;2024-03-02T01:49:59;1.40;;;0.87;;
31746;SDS011;18319;48.974;8.462;2024-03-02T01:52:26;2.73;;;0.80;;
31746;SDS011;18319;48.974;8.462;2024-03-02T01:54:54;0.67;;;0.67;;
31746;SDS011;18319;48.974;8.462;2024-03-02T01:57:21;2.10;;;0.80;;
31746;SDS011;18319;48.974;8.462;2024-03-02T01:59:49;0.43;;;0.43;;
31746;SDS011;18319;48.974;8.462;2024-03-02T02:02:16;0.70;;;0.70;;
31746;SDS011;18319;48.974;8.462;2024-03-02T02:04:43;0.70;;;0.70;;
31746;SDS011;18319;48.974;8.462;2024-03-02T02:07:10;0.93;;;0.70;;
31746;SDS011;18319;48.974;8.462;2024-03-02T02:09:37;1.03;;;0.87;;
31746;SDS011;18319;48.974;8.462;2024-03-02T02:12:03;1.47;;;1.37;;
31746;SDS011;18319;48.974;8.462;2024-03-02T02:14:32;0.73;;;0.73;;
31746;SDS011;18319;48.974;8.462;2024-03-02T02:17:00;2.47;;;0.70;;
31746;SDS011;18319;48.974;8.462;2024-03-02T02:19:26;0.60;;;0.60;;
31746;SDS011;18319;48.974;8.462;2024-03-02T02:21:55;0.60;;;0.60;;
31746;SDS011;18319;48.974;8.462;2024-03-02T02:24:21;1.13;;;0.70;;
31746;SDS011;18319;48.974;8.462;2024-03-02T02:26:48;0.80;;;0.77;;
31746;SDS011;18319;48.974;8.462;2024-03-02T02:29:15;2.93;;;0.60;;
31746;SDS011;18319;48.974;8.462;2024-03-02T02:31:42;0.87;;;0.63;;
31746;SDS011;18319;48.974;8.462;2024-03-02T02:34:09;0.80;;;0.80;;
31746;SDS011;18319;48.974;8.462;2024-03-02T02:36:36;0.90;;;0.60;;
31746;SDS011;18319;48.974;8.462;2024-03-02T02:39:06;1.07;;;0.80;;
31746;SDS011;18319;48.974;8.462;2024-03-02T02:41:37;2.27;;;0.80;;
31746;SDS011;18319;48.974;8.462;2024-03-02T02:44:03;0.60;;;0.60;;
31746;SDS011;18319;48.974;8.462;2024-03-02T02:46:30;0.67;;;0.60;;
31746;SDS011;18319;48.974;8.462;2024-03-02T02:48:57;0.80;;;0.80;;
31746;SDS011;18319;48.974;8.462;2024-03-02T02:51:24;1.90;;;0.50;;
31746;SDS011;18319;48.974;8.462;2024-03-02T02:53:51;1.27;;;0.73;;
31746;SDS011;18319;48.974;8.462;2024-03-02T02:56:19;0.80;;;0.80;;
31746;SDS011;18319;48.974;8.462;2024-03-02T02:58:47;1.40;;;0.80;;
31746;SDS011;18319;48.974;8.462;2024-03-02T03:01:14;0.90;;;0.90;;
31746;SDS011;18319;48.974;8.462;2024-03-02T03:03:42;0.80;;;0.80;;
31746;SDS011;18319;48.974;8.462;2024-03-02T03:06:08;0.73;;;0.60;;
31746;SDS011;18319;48.974;8.462;2024-03-02T03:08:35;1.60;;;1.00;;
31746;SDS011;18319;48.974;8.462;2024-03-02T03:11:02;1.17;;;0.40;;
31746;SDS011;18319;48.974;8.462;2024-03-02T03:13:31;0.50;;;0.50;;
31746;SDS011;18319;48.974;8.462;2024-03-02T03:15:58;2.30;;;0.70;;
31746;SDS011;18319;48.974;8.462;2024-03-02T03:18:24;0.93;;;0.93;;
31746;SDS011;18319;48.974;8.462;2024-03-02T03:20:51;1.23;;;0.60;;
31746;SDS011;18319;48.974;8.462;2024-03-02T03:23:18;0.70;;;0.70;;
31746;SDS011;18319;48.974;8.462;2024-03-02T03:25:45;1.07;;;0.97;;
31746;SDS011;18319;48.974;8.462;2024-03-02T03:28:12;0.60;;;0.60;;
31746;SDS011;18319;48.974;8.462;2024-03-02T03:30:40;0.80;;;0.80;;
31746;SDS011;18319;48.974;8.462;2024-03-02T03:33:08;0.87;;;0.80;;
31746;SDS011;18319;48.974;8.462;2024-03-02T03:35:34;0.67;;;0.60;;
31746;SDS011;18319;48.974;8.462;2024-03-02T03:38:02;1.27;;;0.50;;
31746;SDS011;18319;48.974;8.462;2024-03-02T03:40:29;0.67;;;0.67;;
31746;SDS011;18319;48.974;8.462;2024-03-02T03:42:56;1.20;;;0.70;;
31746;SDS011;18319;48.974;8.462;2024-03-02T03:45:23;0.70;;;0.70;;
31746;SDS011;18319;48.974;8.462;2024-03-02T03:47:52;0.60;;;0.60;;
31746;SDS011;18319;48.974;8.462;2024-03-02T03:50:19;0.83;;;0.83;;
31746;SDS011;18319;48.974;8.462;2024-03-02T03:52:46;1.07;;;0.97;;
31746;SDS011;18319;48.974;8.462;2024-03-02T03:55:12;1.80;;;1.00;;
31746;SDS011;18319;48.974;8.462;2024-03-02T03:57:39;0.57;;;0.57;;
31746;SDS011;18319;48.974;8.462;2024-03-02T04:00:07;2.87;;;0.90;;
31746;SDS011;18319;48.974;8.462;2024-03-02T04:02:36;0.97;;;0.97;;
31746;SDS011;18319;48.974;8.462;2024-03-02T04:05:05;1.47;;;1.10;;
31746;SDS011;18319;48.974;8.462;2024-03-02T04:07:34;0.83;;;0.83;;
31746;SDS011;18319;48.974;8.462;2024-03-02T04:10:05;1.00;;;1.00;;
31746;SDS011;18319;48.974;8.462;2024-03-02T04:12:33;0.77;;;0.77;;
31746;SDS011;18319;48.974;8.462;2024-03-02T04:15:01;1.40;;;1.30;;
31746;SDS011;18319;48.974;8.462;2024-03-02T04:17:29;1.20;;;1.10;;
31746;SDS011;18319;48.974;8.462;2024-03-02T04:19:57;1.97;;;1.07;;
31746;SDS011;18319;48.974;8.462;2024-03-02T04:22:25;1.77;;;0.90;;
31746;SDS011;18319;48.974;8.462;2024-03-02T04:24:52;1.37;;;1.27;;
31746;SDS011;18319;48.974;8.462;2024-03-02T04:27:19;1.30;;;1.20;;
31746;SDS011;18319;48.974;8.462;2024-03-02T04:29:46;1.30;;;1.20;;
31746;SDS011;18319;48.974;8.462;2024-03-02T04:32:13;1.30;;;1.20;;
31746;SDS011;18319;48.974;8.462;2024-03-02T04:34:39;2.00;;;1.20;;
31746;SDS011;18319;48.974;8.462;2024-03-02T04:37:06;1.43;;;1.10;;
31746;SDS011;18319;48.974;8.462;2024-03-02T04:39:35;1.10;;;1.10;;
31746;SDS011;18319;48.974;8.462;2024-03-02T04:42:02;1.70;;;1.23;;
31746;SDS011;18319;48.974;8.462;2024-03-02T04:44:29;0.90;;;0.90;;
31746;SDS011;18319;48.974;8.462;2024-03-02T04:46:56;1.93;;;1.10;;
31746;SDS011;18319;48.974;8.462;2024-03-02T04:49:23;1.00;;;1.00;;
31746;SDS011;18319;48.974;8.462;2024-03-02T04:51:49;1.23;;;1.13;;
31746;SDS011;18319;48.974;8.462;2024-03-02T04:54:16;1.47;;;1.37;;
31746;SDS011;18319;48.974;8.462;2024-03-02T04:56:44;1.27;;;1.17;;
31746;SDS011;18319;48.974;8.462;2024-03-02T04:59:14;1.00;;;1.00;;
31746;SDS011;18319;48.974;8.462;2024-03-02T05:01:41;1.17;;;1.00;;
31746;SDS011;18319;48.974;8.462;2024-03-02T05:04:08;2.77;;;1.93;;
31746;SDS011;18319;48.974;8.462;2024-03-02T05:06:36;1.27;;;1.17;;
31746;SDS011;18319;48.974;8.462;2024-03-02T05:09:03;0.90;;;0.90;;
31746;SDS011;18319;48.974;8.462;2024-03-02T05:11:30;1.33;;;1.23;;
31746;SDS011;18319;48.974;8.462;2024-03-02T05:14:36;1.20;;;1.10;;
31746;SDS011;18319;48.974;8.462;2024-03-02T05:17:02;0.60;;;0.60;;
31746;SDS011;18319;48.974;8.462;2024-03-02T05:19:29;1.10;;;1.00;;
31746;SDS011;18319;48.974;8.462;2024-03-02T05:21:56;1.20;;;1.10;;
31746;SDS011;18319;48.974;8.462;2024-03-02T05:24:23;1.23;;;0.77;;
31746;SDS011;18319;48.974;8.462;2024-03-02T05:26:52;0.97;;;0.93;;
31746;SDS011;18319;48.974;8.462;2024-03-02T05:29:18;1.10;;;1.00;;
31746;SDS011;18319;48.974;8.462;2024-03-02T05:31:47;0.70;;;0.70;;
31746;SDS011;18319;48.974;8.462;2024-03-02T05:34:13;0.90;;;0.80;;
31746;SDS011;18319;48.974;8.462;2024-03-02T05:36:40;1.03;;;1.00;;
31746;SDS011;18319;48.974;8.462;2024-03-02T05:39:07;1.10;;;1.10;;
31746;SDS011;18319;48.974;8.462;2024-03-02T05:41:35;1.10;;;1.00;;
31746;SDS011;18319;48.974;8.462;2024-03-02T05:44:03;1.37;;;1.10;;
31746;SDS011;18319;48.974;8.462;2024-03-02T05:46:30;1.17;;;1.07;;
31746;SDS011;18319;48.974;8.462;2024-03-02T05:48:58;1.27;;;1.17;;
31746;SDS011;18319;48.974;8.462;2024-03-02T05:51:25;1.40;;;1.30;;
31746;SDS011;18319;48.974;8.462;2024-03-02T05:53:51;1.00;;;1.00;;
31746;SDS011;18319;48.974;8.462;2024-03-02T05:56:18;1.10;;;1.10;;
31746;SDS011;18319;48.974;8.462;2024-03-02T05:58:45;1.17;;;1.07;;
31746;SDS011;18319;48.974;8.462;2024-03-02T06:01:22;1.70;;;1.37;;
31746;SDS011;18319;48.974;8.462;2024-03-02T06:03:53;1.00;;;0.80;;
31746;SDS011;18319;48.974;8.462;2024-03-02T06:06:21;0.80;;;0.80;;
31746;SDS011;18319;48.974;8.462;2024-03-02T06:08:48;0.53;;;0.50;;
31746;SDS011;18319;48.974;8.462;2024-03-02T06:11:15;0.40;;;0.40;;
31746;SDS011;18319;48.974;8.462;2024-03-02T06:13:42;0.63;;;0.60;;
31746;SDS011;18319;48.974;8.462;2024-03-02T06:16:08;1.03;;;0.63;;
31746;SDS011;18319;48.974;8.462;2024-03-02T06:18:35;0.50;;;0.50;;
31746;SDS011;18319;48.974;8.462;2024-03-02T06:21:02;0.60;;;0.60;;
31746;SDS011;18319;48.974;8.462;2024-03-02T06:23:30;0.70;;;0.70;;
31746;SDS011;18319;48.974;8.462;2024-03-02T06:25:57;1.63;;;0.60;;
31746;SDS011;18319;48.974;8.462;2024-03-02T06:28:24;0.60;;;0.60;;
31746;SDS011;18319;48.974;8.462;2024-03-02T06:30:51;0.53;;;0.53;;
31746;SDS011;18319;48.974;8.462;2024-03-02T06:33:17;0.93;;;0.57;;
31746;SDS011;18319;48.974;8.462;2024-03-02T06:35:44;0.50;;;0.50;;
31746;SDS011;18319;48.974;8.462;2024-03-02T06:38:11;1.63;;;1.00;;
31746;SDS011;18319;48.974;8.462;2024-03-02T06:40:39;4.20;;;0.73;;
31746;SDS011;18319;48.974;8.462;2024-03-02T06:43:06;2.40;;;0.77;;
31746;SDS011;18319;48.974;8.462;2024-03-02T06:45:38;1.70;;;0.80;;
31746;SDS011;18319;48.974;8.462;2024-03-02T06:48:05;0.63;;;0.63;;
31746;SDS011;18319;48.974;8.462;2024-03-02T06:50:32;0.60;;;0.60;;
31746;SDS011;18319;48.974;8.462;2024-03-02T06:52:59;1.87;;;0.67;;
31746;SDS011;18319;48.974;8.462;2024-03-02T06:55:26;0.63;;;0.63;;
31746;SDS011;18319;48.974;8.462;2024-03-02T06:57:54;2.13;;;0.67;;
31746;SDS011;18319;48.974;8.462;2024-03-02T07:00:21;0.60;;;0.60;;
31746;SDS011;18319;48.974;8.462;2024-03-02T07:02:48;0.70;;;0.60;;
31746;SDS011;18319;48.974;8.462;2024-03-02T07:05:14;1.67;;;0.83;;
31746;SDS011;18319;48.974;8.462;2024-03-02T07:07:41;1.47;;;1.00;;
31746;SDS011;18319;48.974;8.462;2024-03-02T07:10:08;1.20;;;0.70;;
31746;SDS011;18319;48.974;8.462;2024-03-02T07:12:35;0.67;;;0.60;;
31746;SDS011;18319;48.974;8.462;2024-03-02T07:15:04;0.93;;;0.80;;
31746;SDS011;18319;48.974;8.462;2024-03-02T07:17:49;1.03;;;1.03;;
31746;SDS011;18319;48.974;8.462;2024-03-02T07:20:16;0.70;;;0.70;;
31746;SDS011;18319;48.974;8.462;2024-03-02T07:22:43;1.17;;;0.83;;
31746;SDS011;18319;48.974;8.462;2024-03-02T07:25:11;1.30;;;1.00;;
31746;SDS011;18319;48.974;8.462;2024-03-02T07:27:38;2.93;;;1.00;;
31746;SDS011;18319;48.974;8.462;2024-03-02T07:30:06;3.77;;;1.20;;
31746;SDS011;18319;48.974;8.462;2024-03-02T07:32:33;1.33;;;0.87;;
31746;SDS011;18319;48.974;8.462;2024-03-02T07:35:00;1.33;;;0.87;;
31746;SDS011;18319;48.974;8.462;2024-03-02T07:37:28;1.33;;;0.93;;
31746;SDS011;18319;48.974;8.462;2024-03-02T07:39:55;1.03;;;0.83;;
31746;SDS011;18319;48.974;8.462;2024-03-02T07:42:22;0.90;;;0.90;;
31746;SDS011;18319;48.974;8.462;2024-03-02T07:44:49;1.07;;;0.97;;
31746;SDS011;18319;48.974;8.462;2024-03-02T07:47:17;1.43;;;0.90;;
31746;SDS011;18319;48.974;8.462;2024-03-02T07:49:44;1.23;;;1.20;;
31746;SDS011;18319;48.974;8.462;2024-03-02T07:52:11;1.60;;;1.10;;
31746;SDS011;18319;48.974;8.462;2024-03-02T07:54:38;2.77;;;0.87;;
31746;SDS011;18319;48.974;8.462;2024-03-02T07:57:05;1.30;;;1.20;;
31746;SDS011;18319;48.974;8.462;2024-03-02T07:59:31;0.80;;;0.80;;
31746;SDS011;18319;48.974;8.462;2024-03-02T08:01:58;1.33;;;1.00;;
31746;SDS011;18319;48.974;8.462;2024-03-02T08:04:27;1.87;;;1.20;;
31746;SDS011;18319;48.974;8.462;2024-03-02T08:06:54;1.27;;;1.17;;
31746;SDS011;18319;48.974;8.462;2024-03-02T08:09:21;0.90;;;0.90;;
31746;SDS011;18319;48.974;8.462;2024-03-02T08:11:47;1.40;;;1.30;;
31746;SDS011;18319;48.974;8.462;2024-03-02T08:14:17;1.73;;;1.20;;
31746;SDS011;18319;48.974;8.462;2024-03-02T08:16:43;1.13;;;1.03;;
31746;SDS011;18319;48.974;8.462;2024-03-02T08:19:11;1.08;;;1.08;;
31746;SDS011;18319;48.974;8.462;2024-03-02T08:21:39;1.40;;;1.03;;
31746;SDS011;18319;48.974;8.462;2024-03-02T08:24:06;1.88;;;1.27;;
31746;SDS011;18319;48.974;8.462;2024-03-02T08:26:33;1.33;;;1.23;;
31746;SDS011;18319;48.974;8.462;2024-03-02T08:29:02;1.27;;;1.17;;
31746;SDS011;18319;48.974;8.462;2024-03-02T08:31:29;1.45;;;1.35;;
31746;SDS011;18319;48.974;8.462;2024-03-02T08:33:56;2.13;;;1.38;;
31746;SDS011;18319;48.974;8.462;2024-03-02T08:36:23;1.20;;;1.10;;
31746;SDS011;18319;48.974;8.462;2024-03-02T08:38:55;1.33;;;1.17;;
31746;SDS011;18319;48.974;8.462;2024-03-02T08:41:21;0.90;;;0.90;;
31746;SDS011;18319;48.974;8.462;2024-03-02T08:43:48;1.83;;;1.15;;
31746;SDS011;18319;48.974;8.462;2024-03-02T08:46:15;1.27;;;1.17;;
31746;SDS011;18319;48.974;8.462;2024-03-02T08:48:42;1.10;;;1.00;;
31746;SDS011;18319;48.974;8.462;2024-03-02T08:51:08;1.52;;;0.85;;
31746;SDS011;18319;48.974;8.462;2024-03-02T08:53:35;1.27;;;1.10;;
31746;SDS011;18319;48.974;8.462;2024-03-02T08:56:04;1.90;;;1.30;;
31746;SDS011;18319;48.974;8.462;2024-03-02T08:58:31;1.73;;;1.38;;
31746;SDS011;18319;48.974;8.462;2024-03-02T09:00:58;1.92;;;1.83;;
31746;SDS011;18319;48.974;8.462;2024-03-02T09:03:25;1.90;;;1.80;;
31746;SDS011;18319;48.974;8.462;2024-03-02T09:05:52;1.50;;;1.40;;
31746;SDS011;18319;48.974;8.462;2024-03-02T09:08:18;1.70;;;1.60;;
31746;SDS011;18319;48.974;8.462;2024-03-02T09:10:45;1.55;;;1.45;;
31746;SDS011;18319;48.974;8.462;2024-03-02T09:13:13;1.87;;;1.77;;
31746;SDS011;18319;48.974;8.462;2024-03-02T09:15:40;1.55;;;1.45;;
31746;SDS011;18319;48.974;8.462;2024-03-02T09:18:07;2.20;;;1.90;;
31746;SDS011;18319;48.974;8.462;2024-03-02T09:20:34;1.52;;;1.42;;
31746;SDS011;18319;48.974;8.462;2024-03-02T09:23:04;1.80;;;1.70;;
31746;SDS011;18319;48.974;8.462;2024-03-02T09:25:31;2.20;;;2.00;;
31746;SDS011;18319;48.974;8.462;2024-03-02T09:27:58;1.50;;;1.40;;
31746;SDS011;18319;48.974;8.462;2024-03-02T09:30:26;1.48;;;1.38;;
31746;SDS011;18319;48.974;8.462;2024-03-02T09:32:53;2.20;;;2.00;;
31746;SDS011;18319;48.974;8.462;2024-03-02T09:35:19;2.35;;;2.00;;
31746;SDS011;18319;48.974;8.462;2024-03-02T09:37:48;5.07;;;2.10;;
31746;SDS011;18319;48.974;8.462;2024-03-02T09:40:16;2.33;;;2.13;;
31746;SDS011;18319;48.974;8.462;2024-03-02T09:42:43;1.95;;;1.83;;
31746;SDS011;18319;48.974;8.462;2024-03-02T09:45:16;2.10;;;2.00;;
31746;SDS011;18319;48.974;8.462;2024-03-02T09:47:46;2.58;;;2.38;;
31746;SDS011;18319;48.974;8.462;2024-03-02T09:50:13;2.97;;;2.40;;
31746;SDS011;18319;48.974;8.462;2024-03-02T09:52:40;2.58;;;2.38;;
31746;SDS011;18319;48.974;8.462;2024-03-02T09:55:08;2.40;;;1.98;;
31746;SDS011;18319;48.974;8.462;2024-03-02T09:57:35;2.55;;;2.35;;
31746;SDS011;18319;48.974;8.462;2024-03-02T10:00:01;1.92;;;1.83;;
31746;SDS011;18319;48.974;8.462;2024-03-02T10:02:29;2.13;;;2.03;;
31746;SDS011;18319;48.974;8.462;2024-03-02T10:04:57;2.45;;;2.28;;
31746;SDS011;18319;48.974;8.462;2024-03-02T10:07:24;1.73;;;1.63;;
31746;SDS011;18319;48.974;8.462;2024-03-02T10:09:51;4.40;;;1.80;;
31746;SDS011;18319;48.974;8.462;2024-03-02T10:12:18;2.25;;;2.15;;
31746;SDS011;18319;48.974;8.462;2024-03-02T10:14:45;1.92;;;1.77;;
31746;SDS011;18319;48.974;8.462;2024-03-02T10:17:13;1.98;;;1.88;;
31746;SDS011;18319;48.974;8.462;2024-03-02T10:19:40;2.63;;;1.90;;
31746;SDS011;18319;48.974;8.462;2024-03-02T10:22:09;2.50;;;2.28;;
31746;SDS011;18319;48.974;8.462;2024-03-02T10:24:40;2.35;;;2.15;;
31746;SDS011;18319;48.974;8.462;2024-03-02T10:27:34;2.25;;;1.88;;
31746;SDS011;18319;48.974;8.462;2024-03-02T10:30:02;2.33;;;2.08;;
31746;SDS011;18319;48.974;8.462;2024-03-02T10:32:36;2.53;;;2.08;;
31746;SDS011;18319;48.974;8.462;2024-03-02T10:38:23;1.95;;;1.83;;
31746;SDS011;18319;48.974;8.462;2024-03-02T10:40:54;2.83;;;2.03;;
31746;SDS011;18319;48.974;8.462;2024-03-02T10:43:24;2.00;;;1.90;;
31746;SDS011;18319;48.974;8.462;2024-03-02T10:45:51;2.25;;;2.00;;
31746;SDS011;18319;48.974;8.462;2024-03-02T10:48:20;3.70;;;2.65;;
31746;SDS011;18319;48.974;8.462;2024-03-02T10:50:47;2.22;;;2.13;;
31746;SDS011;18319;48.974;8.462;2024-03-02T10:53:14;1.90;;;1.80;;
31746;SDS011;18319;48.974;8.462;2024-03-02T10:55:42;1.75;;;1.65;;
31746;SDS011;18319;48.974;8.462;2024-03-02T10:58:09;3.47;;;1.70;;
31746;SDS011;18319;48.974;8.462;2024-03-02T11:00:38;2.13;;;1.75;;
31746;SDS011;18319;48.974;8.462;2024-03-02T11:03:07;2.30;;;1.52;;
31746;SDS011;18319;48.974;8.462;2024-03-02T11:05:36;2.35;;;2.15;;
31746;SDS011;18319;48.974;8.462;2024-03-02T11:08:06;1.67;;;1.40;;
31746;SDS011;18319;48.974;8.462;2024-03-02T11:10:36;1.73;;;1.63;;
31746;SDS011;18319;48.974;8.462;2024-03-02T11:13:09;1.55;;;1.45;;
31746;SDS011;18319;48.974;8.462;2024-03-02T11:15:38;1.80;;;1.60;;
31746;SDS011;18319;48.974;8.462;2024-03-02T11:18:08;0.80;;;0.80;;
31746;SDS011;18319;48.974;8.462;2024-03-02T11:20:39;1.67;;;0.88;;
31746;SDS011;18319;48.974;8.462;2024-03-02T11:23:08;2.03;;;0.70;;
31746;SDS011;18319;48.974;8.462;2024-03-02T11:25:35;0.80;;;0.80;;
31746;SDS011;18319;48.974;8.462;2024-03-02T11:28:04;1.20;;;1.15;;
31746;SDS011;18319;48.974;8.462;2024-03-02T11:30:51;0.88;;;0.82;;
31746;SDS011;18319;48.974;8.462;2024-03-02T11:33:27;0.85;;;0.60;;
31746;SDS011;18319;48.974;8.462;2024-03-02T11:35:55;1.00;;;0.73;;
31746;SDS011;18319;48.974;8.462;2024-03-02T11:38:23;0.47;;;0.47;;
31746;SDS011;18319;48.974;8.462;2024-03-02T11:40:55;1.73;;;0.80;;
31746;SDS011;18319;48.974;8.462;2024-03-02T11:43:22;1.55;;;1.20;;
31746;SDS011;18319;48.974;8.462;2024-03-02T11:45:50;0.73;;;0.73;;
31746;SDS011;18319;48.974;8.462;2024-03-02T11:48:23;0.90;;;0.90;;
31746;SDS011;18319;48.974;8.462;2024-03-02T11:50:51;1.73;;;0.80;;
31746;SDS011;18319;48.974;8.462;2024-03-02T11:53:19;1.13;;;0.80;;
31746;SDS011;18319;48.974;8.462;2024-03-02T11:55:46;0.80;;;0.77;;
31746;SDS011;18319;48.974;8.462;2024-03-02T11:58:15;1.25;;;1.15;;
31746;SDS011;18319;48.974;8.462;2024-03-02T12:00:42;1.30;;;1.20;;
31746;SDS011;18319;48.974;8.462;2024-03-02T12:03:11;1.45;;;1.23;;
31746;SDS011;18319;48.974;8.462;2024-03-02T12:05:39;2.60;;;1.30;;
31746;SDS011;18319;48.974;8.462;2024-03-02T12:08:06;1.42;;;1.20;;
31746;SDS011;18319;48.974;8.462;2024-03-02T12:10:34;1.33;;;0.95;;
31746;SDS011;18319;48.974;8.462;2024-03-02T12:13:02;1.45;;;1.35;;
31746;SDS011;18319;48.974;8.462;2024-03-02T12:15:32;1.67;;;1.20;;
31746;SDS011;18319;48.974;8.462;2024-03-02T12:18:01;1.98;;;1.63;;
31746;SDS011;18319;48.974;8.462;2024-03-02T12:20:29;1.30;;;1.15;;
31746;SDS011;18319;48.974;8.462;2024-03-02T12:22:57;2.28;;;1.63;;
31746;SDS011;18319;48.974;8.462;2024-03-02T12:25:25;1.45;;;1.35;;
31746;SDS011;18319;48.974;8.462;2024-03-02T12:27:53;1.30;;;1.20;;
31746;SDS011;18319;48.974;8.462;2024-03-02T12:30:21;3.55;;;1.75;;
31746;SDS011;18319;48.974;8.462;2024-03-02T12:32:49;2.53;;;1.85;;
31746;SDS011;18319;48.974;8.462;2024-03-02T12:35:17;1.70;;;1.60;;
31746;SDS011;18319;48.974;8.462;2024-03-02T12:37:46;1.80;;;1.70;;
31746;SDS011;18319;48.974;8.462;2024-03-02T12:40:14;2.17;;;2.00;;
31746;SDS011;18319;48.974;8.462;2024-03-02T12:42:43;1.63;;;1.38;;
31746;SDS011;18319;48.974;8.462;2024-03-02T12:45:11;2.05;;;1.35;;
31746;SDS011;18319;48.974;8.462;2024-03-02T12:47:38;2.95;;;1.77;;
31746;SDS011;18319;48.974;8.462;2024-03-02T12:50:06;1.60;;;1.50;;
31746;SDS011;18319;48.974;8.462;2024-03-02T12:52:33;1.77;;;1.67;;
31746;SDS011;18319;48.974;8.462;2024-03-02T12:55:03;1.33;;;1.23;;
31746;SDS011;18319;48.974;8.462;2024-03-02T12:57:32;1.50;;;1.42;;
31746;SDS011;18319;48.974;8.462;2024-03-02T12:59:59;2.30;;;1.45;;
31746;SDS011;18319;48.974;8.462;2024-03-02T13:02:27;1.65;;;1.48;;
31746;SDS011;18319;48.974;8.462;2024-03-02T13:04:55;1.60;;;1.50;;
31746;SDS011;18319;48.974;8.462;2024-03-02T13:07:23;1.40;;;1.30;;
31746;SDS011;18319;48.974;8.462;2024-03-02T13:09:51;1.65;;;1.55;;
31746;SDS011;18319;48.974;8.462;2024-03-02T13:12:21;1.88;;;1.40;;
31746;SDS011;18319;48.974;8.462;2024-03-02T13:14:49;1.60;;;1.50;;
31746;SDS011;18319;48.974;8.462;2024-03-02T13:17:17;1.63;;;1.52;;
31746;SDS011;18319;48.974;8.462;2024-03-02T13:19:51;1.45;;;1.35;;
31746;SDS011;18319;48.974;8.462;2024-03-02T13:22:19;2.40;;;1.58;;
31746;SDS011;18319;48.974;8.462;2024-03-02T13:24:46;1.35;;;1.25;;
31746;SDS011;18319;48.974;8.462;2024-03-02T13:27:13;1.90;;;1.35;;
31746;SDS011;18319;48.974;8.462;2024-03-02T13:29:42;1.73;;;1.38;;
31746;SDS011;18319;48.974;8.462;2024-03-02T13:32:09;2.05;;;1.55;;
31746;SDS011;18319;48.974;8.462;2024-03-02T13:34:35;1.75;;;1.00;;
31746;SDS011;18319;48.974;8.462;2024-03-02T13:37:02;1.20;;;1.10;;
31746;SDS011;18319;48.974;8.462;2024-03-02T13:39:30;2.22;;;1.40;;
31746;SDS011;18319;48.974;8.462;2024-03-02T13:41:57;1.17;;;1.00;;
31746;SDS011;18319;48.974;8.462;2024-03-02T13:44:29;1.33;;;1.23;;
31746;SDS011;18319;48.974;8.462;2024-03-02T13:46:57;1.08;;;1.08;;
31746;SDS011;18319;48.974;8.462;2024-03-02T13:49:25;1.63;;;1.08;;
31746;SDS011;18319;48.974;8.462;2024-03-02T13:51:58;1.80;;;0.77;;
31746;SDS011;18319;48.974;8.462;2024-03-02T13:54:26;0.95;;;0.95;;
31746;SDS011;18319;48.974;8.462;2024-03-02T13:56:52;0.77;;;0.70;;
31746;SDS011;18319;48.974;8.462;2024-03-02T13:59:19;1.38;;;1.10;;
31746;SDS011;18319;48.974;8.462;2024-03-02T14:01:47;2.25;;;0.85;;
31746;SDS011;18319;48.974;8.462;2024-03-02T14:04:16;0.98;;;0.80;;
31746;SDS011;18319;48.974;8.462;2024-03-02T14:06:43;0.80;;;0.80;;
31746;SDS011;18319;48.974;8.462;2024-03-02T14:09:10;0.80;;;0.80;;
31746;SDS011;18319;48.974;8.462;2024-03-02T14:11:36;0.82;;;0.70;;
31746;SDS011;18319;48.974;8.462;2024-03-02T14:14:03;0.68;;;0.60;;
31746;SDS011;18319;48.974;8.462;2024-03-02T14:16:30;0.50;;;0.50;;
31746;SDS011;18319;48.974;8.462;2024-03-02T14:18:56;0.63;;;0.50;;
31746;SDS011;18319;48.974;8.462;2024-03-02T14:21:25;0.75;;;0.75;;
31746;SDS011;18319;48.974;8.462;2024-03-02T14:23:52;4.43;;;0.98;;
31746;SDS011;18319;48.974;8.462;2024-03-02T14:26:19;0.77;;;0.77;;
31746;SDS011;18319;48.974;8.462;2024-03-02T14:28:46;1.25;;;0.75;;
31746;SDS011;18319;48.974;8.462;2024-03-02T14:31:13;3.13;;;1.02;;
31746;SDS011;18319;48.974;8.462;2024-03-02T14:33:40;1.35;;;0.88;;
31746;SDS011;18319;48.974;8.462;2024-03-02T14:36:07;1.13;;;1.02;;
31746;SDS011;18319;48.974;8.462;2024-03-02T14:38:35;1.77;;;0.88;;
31746;SDS011;18319;48.974;8.462;2024-03-02T14:41:02;1.13;;;0.93;;
31746;SDS011;18319;48.974;8.462;2024-03-02T14:43:30;1.30;;;1.20;;
31746;SDS011;18319;48.974;8.462;2024-03-02T14:45:56;0.93;;;0.82;;
31746;SDS011;18319;48.974;8.462;2024-03-02T14:48:24;0.85;;;0.77;;
31746;SDS011;18319;48.974;8.462;2024-03-02T14:50:51;1.00;;;0.85;;
31746;SDS011;18319;48.974;8.462;2024-03-02T14:53:18;0.70;;;0.70;;
31746;SDS011;18319;48.974;8.462;2024-03-02T14:55:46;2.45;;;1.00;;
31746;SDS011;18319;48.974;8.462;2024-03-02T14:58:15;0.60;;;0.57;;